sensor_id;sensor_type;location;lat;lon;timestamp;temperature;humidity
22073;DHT22;11202;50.916;4.698;2022-11-06T00:00:56;10.50;99.90
22073;DHT22;11202;50.916;4.698;2022-11-06T00:03:22;10.50;99.90
22073;DHT22;11202;50.916;4.698;2022-11-06T00:05:50;10.40;99.90
22073;DHT22;11202;50.916;4.698;2022-11-06T00:08:38;10.40;99.90
22073;DHT22;11202;50.916;4.698;2022-11-06T00:11:15;10.50;99.90
22073;DHT22;11202;50.916;4.698;2022-11-06T00:13:42;10.40;99.90
22073;DHT22;11202;50.916;4.698;2022-11-06T00:16:10;10.30;99.90
22073;DHT22;11202;50.916;4.698;2022-11-06T00:18:38;10.30;99.90
22073;DHT22;11202;50.916;4.698;2022-11-06T00:21:08;10.30;99.90
22073;DHT22;11202;50.916;4.698;2022-11-06T00:23:34;10.30;99.90
22073;DHT22;11202;50.916;4.698;2022-11-06T00:26:04;10.50;99.90
22073;DHT22;11202;50.916;4.698;2022-11-06T00:28:30;10.50;99.90
22073;DHT22;11202;50.916;4.698;2022-11-06T00:31:07;10.60;99.90
22073;DHT22;11202;50.916;4.698;2022-11-06T00:33:33;10.60;99.90
22073;DHT22;11202;50.916;4.698;2022-11-06T00:36:11;10.70;99.90
22073;DHT22;11202;50.916;4.698;2022-11-06T00:38:37;10.70;99.90
22073;DHT22;11202;50.916;4.698;2022-11-06T00:41:10;10.70;99.90
22073;DHT22;11202;50.916;4.698;2022-11-06T00:43:36;10.70;99.90
22073;DHT22;11202;50.916;4.698;2022-11-06T00:46:07;10.80;99.90
22073;DHT22;11202;50.916;4.698;2022-11-06T00:48:39;10.90;99.90
22073;DHT22;11202;50.916;4.698;2022-11-06T00:51:17;10.90;99.90
22073;DHT22;11202;50.916;4.698;2022-11-06T00:53:43;10.90;99.90
22073;DHT22;11202;50.916;4.698;2022-11-06T00:56:17;10.90;99.90
22073;DHT22;11202;50.916;4.698;2022-11-06T00:58:43;11.00;99.90
22073;DHT22;11202;50.916;4.698;2022-11-06T01:01:14;11.10;99.90
22073;DHT22;11202;50.916;4.698;2022-11-06T01:03:42;11.10;99.90
22073;DHT22;11202;50.916;4.698;2022-11-06T01:06:16;11.10;99.90
22073;DHT22;11202;50.916;4.698;2022-11-06T01:08:46;11.00;99.90
22073;DHT22;11202;50.916;4.698;2022-11-06T01:11:25;11.10;99.90
22073;DHT22;11202;50.916;4.698;2022-11-06T01:13:56;11.10;99.90
22073;DHT22;11202;50.916;4.698;2022-11-06T01:16:26;11.10;99.90
22073;DHT22;11202;50.916;4.698;2022-11-06T01:18:53;11.10;99.90
22073;DHT22;11202;50.916;4.698;2022-11-06T01:21:24;11.10;99.90
22073;DHT22;11202;50.916;4.698;2022-11-06T01:23:57;11.10;99.90
22073;DHT22;11202;50.916;4.698;2022-11-06T01:26:24;11.20;99.90
22073;DHT22;11202;50.916;4.698;2022-11-06T01:28:51;11.20;99.90
22073;DHT22;11202;50.916;4.698;2022-11-06T01:31:19;11.20;99.90
22073;DHT22;11202;50.916;4.698;2022-11-06T01:33:45;11.20;99.90
22073;DHT22;11202;50.916;4.698;2022-11-06T01:36:14;11.20;99.90
22073;DHT22;11202;50.916;4.698;2022-11-06T01:38:41;11.20;99.90
22073;DHT22;11202;50.916;4.698;2022-11-06T01:41:08;11.20;99.90
22073;DHT22;11202;50.916;4.698;2022-11-06T01:43:56;11.20;99.90
22073;DHT22;11202;50.916;4.698;2022-11-06T01:46:27;11.10;99.90
22073;DHT22;11202;50.916;4.698;2022-11-06T01:51:26;11.10;99.90
22073;DHT22;11202;50.916;4.698;2022-11-06T01:53:58;11.20;99.90
22073;DHT22;11202;50.916;4.698;2022-11-06T01:56:25;11.10;99.90
22073;DHT22;11202;50.916;4.698;2022-11-06T01:58:52;11.20;99.90
22073;DHT22;11202;50.916;4.698;2022-11-06T02:01:19;11.20;99.90
22073;DHT22;11202;50.916;4.698;2022-11-06T02:03:55;11.20;99.90
22073;DHT22;11202;50.916;4.698;2022-11-06T02:06:23;11.10;99.90
22073;DHT22;11202;50.916;4.698;2022-11-06T02:08:49;11.10;99.90
22073;DHT22;11202;50.916;4.698;2022-11-06T02:11:15;11.10;99.90
22073;DHT22;11202;50.916;4.698;2022-11-06T02:16:39;11.20;99.90
22073;DHT22;11202;50.916;4.698;2022-11-06T02:24:57;11.10;99.90
22073;DHT22;11202;50.916;4.698;2022-11-06T02:27:25;11.10;99.90
22073;DHT22;11202;50.916;4.698;2022-11-06T02:30:05;11.20;99.90
22073;DHT22;11202;50.916;4.698;2022-11-06T02:32:53;11.20;99.90
22073;DHT22;11202;50.916;4.698;2022-11-06T02:35:34;11.20;99.90
22073;DHT22;11202;50.916;4.698;2022-11-06T02:38:06;11.20;99.90
22073;DHT22;11202;50.916;4.698;2022-11-06T02:40:35;11.20;99.90
22073;DHT22;11202;50.916;4.698;2022-11-06T02:43:07;11.10;99.90
22073;DHT22;11202;50.916;4.698;2022-11-06T02:45:42;11.10;99.90
22073;DHT22;11202;50.916;4.698;2022-11-06T02:48:09;11.20;99.90
22073;DHT22;11202;50.916;4.698;2022-11-06T02:50:41;11.20;99.90
22073;DHT22;11202;50.916;4.698;2022-11-06T02:53:09;11.20;99.90
22073;DHT22;11202;50.916;4.698;2022-11-06T02:55:39;11.10;99.90
22073;DHT22;11202;50.916;4.698;2022-11-06T02:58:11;11.10;99.90
22073;DHT22;11202;50.916;4.698;2022-11-06T03:00:46;11.00;99.90
22073;DHT22;11202;50.916;4.698;2022-11-06T03:03:25;10.90;99.90
22073;DHT22;11202;50.916;4.698;2022-11-06T03:06:09;10.90;99.90
22073;DHT22;11202;50.916;4.698;2022-11-06T03:08:50;10.90;99.90
22073;DHT22;11202;50.916;4.698;2022-11-06T03:11:21;10.90;99.90
22073;DHT22;11202;50.916;4.698;2022-11-06T03:19:27;11.00;99.90
22073;DHT22;11202;50.916;4.698;2022-11-06T03:22:07;11.00;99.90
22073;DHT22;11202;50.916;4.698;2022-11-06T03:24:50;11.00;99.90
22073;DHT22;11202;50.916;4.698;2022-11-06T03:27:24;11.00;99.90
22073;DHT22;11202;50.916;4.698;2022-11-06T03:30:06;11.10;99.90
22073;DHT22;11202;50.916;4.698;2022-11-06T03:32:36;11.10;99.90
22073;DHT22;11202;50.916;4.698;2022-11-06T03:35:31;11.10;99.90
22073;DHT22;11202;50.916;4.698;2022-11-06T03:38:22;11.20;99.90
22073;DHT22;11202;50.916;4.698;2022-11-06T03:41:03;11.20;99.90
22073;DHT22;11202;50.916;4.698;2022-11-06T03:43:37;11.20;99.90
22073;DHT22;11202;50.916;4.698;2022-11-06T03:46:13;11.20;99.90
22073;DHT22;11202;50.916;4.698;2022-11-06T03:48:45;11.20;99.90
22073;DHT22;11202;50.916;4.698;2022-11-06T03:51:29;11.10;99.90
22073;DHT22;11202;50.916;4.698;2022-11-06T03:54:00;11.20;99.90
22073;DHT22;11202;50.916;4.698;2022-11-06T03:56:42;11.30;99.90
22073;DHT22;11202;50.916;4.698;2022-11-06T03:59:09;11.30;99.90
22073;DHT22;11202;50.916;4.698;2022-11-06T04:01:42;11.30;99.90
22073;DHT22;11202;50.916;4.698;2022-11-06T04:04:24;11.30;99.90
22073;DHT22;11202;50.916;4.698;2022-11-06T04:07:07;11.30;99.90
22073;DHT22;11202;50.916;4.698;2022-11-06T04:09:36;11.30;99.90
22073;DHT22;11202;50.916;4.698;2022-11-06T04:12:23;11.10;99.90
22073;DHT22;11202;50.916;4.698;2022-11-06T04:15:31;11.20;99.90
22073;DHT22;11202;50.916;4.698;2022-11-06T04:18:00;11.20;99.90
22073;DHT22;11202;50.916;4.698;2022-11-06T04:20:34;11.20;99.90
22073;DHT22;11202;50.916;4.698;2022-11-06T04:26:11;11.20;99.90
22073;DHT22;11202;50.916;4.698;2022-11-06T04:31:54;11.20;99.90
22073;DHT22;11202;50.916;4.698;2022-11-06T04:37:16;11.10;99.90
22073;DHT22;11202;50.916;4.698;2022-11-06T04:39:54;11.00;99.90
22073;DHT22;11202;50.916;4.698;2022-11-06T04:42:31;10.80;99.90
22073;DHT22;11202;50.916;4.698;2022-11-06T04:45:07;10.90;99.90
22073;DHT22;11202;50.916;4.698;2022-11-06T04:47:35;10.80;99.90
22073;DHT22;11202;50.916;4.698;2022-11-06T04:50:02;10.70;99.90
22073;DHT22;11202;50.916;4.698;2022-11-06T04:52:30;10.80;99.90
22073;DHT22;11202;50.916;4.698;2022-11-06T04:54:57;10.80;99.90
22073;DHT22;11202;50.916;4.698;2022-11-06T04:57:24;10.70;99.90
22073;DHT22;11202;50.916;4.698;2022-11-06T04:59:50;10.70;99.90
22073;DHT22;11202;50.916;4.698;2022-11-06T05:02:17;10.60;99.90
22073;DHT22;11202;50.916;4.698;2022-11-06T05:04:42;10.60;99.90
22073;DHT22;11202;50.916;4.698;2022-11-06T05:07:12;10.60;99.90
22073;DHT22;11202;50.916;4.698;2022-11-06T05:09:40;10.50;99.90
22073;DHT22;11202;50.916;4.698;2022-11-06T05:12:08;10.60;99.90
22073;DHT22;11202;50.916;4.698;2022-11-06T05:14:33;10.50;99.90
22073;DHT22;11202;50.916;4.698;2022-11-06T05:16:59;10.60;99.90
22073;DHT22;11202;50.916;4.698;2022-11-06T05:19:24;10.60;99.90
22073;DHT22;11202;50.916;4.698;2022-11-06T05:21:53;10.60;99.90
22073;DHT22;11202;50.916;4.698;2022-11-06T05:24:36;10.60;99.90
22073;DHT22;11202;50.916;4.698;2022-11-06T05:27:02;10.70;99.90
22073;DHT22;11202;50.916;4.698;2022-11-06T05:29:28;10.60;99.90
22073;DHT22;11202;50.916;4.698;2022-11-06T05:31:55;10.70;99.90
22073;DHT22;11202;50.916;4.698;2022-11-06T05:34:21;10.60;99.90
22073;DHT22;11202;50.916;4.698;2022-11-06T05:36:47;10.70;99.90
22073;DHT22;11202;50.916;4.698;2022-11-06T05:39:12;10.70;99.90
22073;DHT22;11202;50.916;4.698;2022-11-06T05:41:38;10.70;99.90
22073;DHT22;11202;50.916;4.698;2022-11-06T05:44:03;10.70;99.90
22073;DHT22;11202;50.916;4.698;2022-11-06T05:46:30;10.80;99.90
22073;DHT22;11202;50.916;4.698;2022-11-06T05:48:58;10.90;99.90
22073;DHT22;11202;50.916;4.698;2022-11-06T05:51:29;10.90;99.90
22073;DHT22;11202;50.916;4.698;2022-11-06T05:53:54;10.90;99.90
22073;DHT22;11202;50.916;4.698;2022-11-06T05:56:22;11.00;99.90
22073;DHT22;11202;50.916;4.698;2022-11-06T05:58:48;11.00;99.90
22073;DHT22;11202;50.916;4.698;2022-11-06T06:01:14;11.00;99.90
22073;DHT22;11202;50.916;4.698;2022-11-06T06:03:42;11.00;99.90
22073;DHT22;11202;50.916;4.698;2022-11-06T06:06:10;11.00;99.90
22073;DHT22;11202;50.916;4.698;2022-11-06T06:08:36;11.00;99.90
22073;DHT22;11202;50.916;4.698;2022-11-06T06:11:05;11.00;99.90
22073;DHT22;11202;50.916;4.698;2022-11-06T06:13:51;11.00;99.90
22073;DHT22;11202;50.916;4.698;2022-11-06T06:16:19;11.10;99.90
22073;DHT22;11202;50.916;4.698;2022-11-06T06:18:47;11.10;99.90
22073;DHT22;11202;50.916;4.698;2022-11-06T06:21:15;11.20;99.90
22073;DHT22;11202;50.916;4.698;2022-11-06T06:23:42;11.40;99.90
22073;DHT22;11202;50.916;4.698;2022-11-06T06:26:08;11.40;99.90
22073;DHT22;11202;50.916;4.698;2022-11-06T06:28:34;11.50;99.90
22073;DHT22;11202;50.916;4.698;2022-11-06T06:31:04;11.40;99.90
22073;DHT22;11202;50.916;4.698;2022-11-06T06:33:30;11.50;99.90
22073;DHT22;11202;50.916;4.698;2022-11-06T06:36:02;11.50;99.90
22073;DHT22;11202;50.916;4.698;2022-11-06T06:38:30;11.60;99.90
22073;DHT22;11202;50.916;4.698;2022-11-06T06:41:03;11.50;99.90
22073;DHT22;11202;50.916;4.698;2022-11-06T06:43:30;11.50;99.90
22073;DHT22;11202;50.916;4.698;2022-11-06T06:45:59;11.50;99.90
22073;DHT22;11202;50.916;4.698;2022-11-06T06:48:26;11.40;99.90
22073;DHT22;11202;50.916;4.698;2022-11-06T06:50:55;11.20;99.90
22073;DHT22;11202;50.916;4.698;2022-11-06T06:53:23;11.20;99.90
22073;DHT22;11202;50.916;4.698;2022-11-06T06:55:52;11.30;99.90
22073;DHT22;11202;50.916;4.698;2022-11-06T06:58:18;11.40;99.90
22073;DHT22;11202;50.916;4.698;2022-11-06T07:00:44;11.50;99.90
22073;DHT22;11202;50.916;4.698;2022-11-06T07:03:11;11.60;99.90
22073;DHT22;11202;50.916;4.698;2022-11-06T07:05:36;11.60;99.90
22073;DHT22;11202;50.916;4.698;2022-11-06T07:08:05;11.70;99.90
22073;DHT22;11202;50.916;4.698;2022-11-06T07:10:33;11.70;99.90
22073;DHT22;11202;50.916;4.698;2022-11-06T07:13:03;11.70;99.90
22073;DHT22;11202;50.916;4.698;2022-11-06T07:15:30;11.70;99.90
22073;DHT22;11202;50.916;4.698;2022-11-06T07:18:03;11.60;99.90
22073;DHT22;11202;50.916;4.698;2022-11-06T07:20:30;11.80;99.90
22073;DHT22;11202;50.916;4.698;2022-11-06T07:22:56;11.80;99.90
22073;DHT22;11202;50.916;4.698;2022-11-06T07:25:23;11.80;99.90
22073;DHT22;11202;50.916;4.698;2022-11-06T07:27:48;11.90;99.90
22073;DHT22;11202;50.916;4.698;2022-11-06T07:30:17;12.00;99.90
22073;DHT22;11202;50.916;4.698;2022-11-06T07:32:42;12.00;99.90
22073;DHT22;11202;50.916;4.698;2022-11-06T07:35:08;12.00;99.90
22073;DHT22;11202;50.916;4.698;2022-11-06T07:37:34;12.10;99.90
22073;DHT22;11202;50.916;4.698;2022-11-06T07:40:00;12.00;99.90
22073;DHT22;11202;50.916;4.698;2022-11-06T07:42:27;12.10;99.90
22073;DHT22;11202;50.916;4.698;2022-11-06T07:44:53;12.10;99.90
22073;DHT22;11202;50.916;4.698;2022-11-06T07:47:20;12.10;99.90
22073;DHT22;11202;50.916;4.698;2022-11-06T07:49:46;12.00;99.90
22073;DHT22;11202;50.916;4.698;2022-11-06T07:52:11;12.10;99.90
22073;DHT22;11202;50.916;4.698;2022-11-06T07:54:37;12.20;99.90
22073;DHT22;11202;50.916;4.698;2022-11-06T07:57:03;12.20;99.90
22073;DHT22;11202;50.916;4.698;2022-11-06T07:59:28;12.10;99.90
22073;DHT22;11202;50.916;4.698;2022-11-06T08:01:54;12.10;99.90
22073;DHT22;11202;50.916;4.698;2022-11-06T08:04:20;12.20;99.90
22073;DHT22;11202;50.916;4.698;2022-11-06T08:06:45;12.20;99.90
22073;DHT22;11202;50.916;4.698;2022-11-06T08:09:11;12.30;99.90
22073;DHT22;11202;50.916;4.698;2022-11-06T08:11:39;12.20;99.90
22073;DHT22;11202;50.916;4.698;2022-11-06T08:14:07;12.10;99.90
22073;DHT22;11202;50.916;4.698;2022-11-06T08:16:35;12.10;99.90
22073;DHT22;11202;50.916;4.698;2022-11-06T08:19:03;12.20;99.90
22073;DHT22;11202;50.916;4.698;2022-11-06T08:21:28;12.30;99.90
22073;DHT22;11202;50.916;4.698;2022-11-06T08:23:56;12.40;99.90
22073;DHT22;11202;50.916;4.698;2022-11-06T08:26:24;12.30;99.90
22073;DHT22;11202;50.916;4.698;2022-11-06T08:28:50;12.30;99.90
22073;DHT22;11202;50.916;4.698;2022-11-06T08:31:18;12.70;99.90
22073;DHT22;11202;50.916;4.698;2022-11-06T08:33:45;12.80;99.90
22073;DHT22;11202;50.916;4.698;2022-11-06T08:36:11;12.90;99.90
22073;DHT22;11202;50.916;4.698;2022-11-06T08:38:36;12.80;99.90
22073;DHT22;11202;50.916;4.698;2022-11-06T08:41:11;12.80;99.90
22073;DHT22;11202;50.916;4.698;2022-11-06T08:43:37;13.60;99.90
22073;DHT22;11202;50.916;4.698;2022-11-06T08:46:05;14.40;99.90
22073;DHT22;11202;50.916;4.698;2022-11-06T08:48:31;14.40;99.90
22073;DHT22;11202;50.916;4.698;2022-11-06T08:50:59;14.10;99.90
22073;DHT22;11202;50.916;4.698;2022-11-06T08:53:25;13.90;99.90
22073;DHT22;11202;50.916;4.698;2022-11-06T08:55:53;13.80;99.90
22073;DHT22;11202;50.916;4.698;2022-11-06T08:58:19;13.60;99.90
22073;DHT22;11202;50.916;4.698;2022-11-06T09:00:45;13.60;99.90
22073;DHT22;11202;50.916;4.698;2022-11-06T09:03:14;13.90;99.90
22073;DHT22;11202;50.916;4.698;2022-11-06T09:05:41;13.70;99.90
22073;DHT22;11202;50.916;4.698;2022-11-06T09:08:07;13.20;99.90
22073;DHT22;11202;50.916;4.698;2022-11-06T09:10:34;12.90;99.90
22073;DHT22;11202;50.916;4.698;2022-11-06T09:13:02;12.70;99.90
22073;DHT22;11202;50.916;4.698;2022-11-06T09:15:29;12.60;99.90
22073;DHT22;11202;50.916;4.698;2022-11-06T09:17:55;12.70;99.90
22073;DHT22;11202;50.916;4.698;2022-11-06T09:20:24;12.50;99.90
22073;DHT22;11202;50.916;4.698;2022-11-06T09:22:50;12.50;99.90
22073;DHT22;11202;50.916;4.698;2022-11-06T09:25:16;12.50;99.90
22073;DHT22;11202;50.916;4.698;2022-11-06T09:27:44;12.60;99.90
22073;DHT22;11202;50.916;4.698;2022-11-06T09:30:12;12.60;99.90
22073;DHT22;11202;50.916;4.698;2022-11-06T09:32:47;12.70;99.90
22073;DHT22;11202;50.916;4.698;2022-11-06T09:35:14;13.00;99.90
22073;DHT22;11202;50.916;4.698;2022-11-06T09:37:40;13.10;99.90
22073;DHT22;11202;50.916;4.698;2022-11-06T09:40:08;13.10;99.90
22073;DHT22;11202;50.916;4.698;2022-11-06T09:42:55;13.00;99.90
22073;DHT22;11202;50.916;4.698;2022-11-06T09:45:28;12.80;99.90
22073;DHT22;11202;50.916;4.698;2022-11-06T09:50:27;13.20;99.90
22073;DHT22;11202;50.916;4.698;2022-11-06T09:52:58;13.10;99.90
22073;DHT22;11202;50.916;4.698;2022-11-06T09:55:29;13.10;99.90
22073;DHT22;11202;50.916;4.698;2022-11-06T09:58:04;13.00;99.90
22073;DHT22;11202;50.916;4.698;2022-11-06T10:00:37;12.90;99.90
22073;DHT22;11202;50.916;4.698;2022-11-06T10:03:40;12.70;99.90
22073;DHT22;11202;50.916;4.698;2022-11-06T10:06:08;12.60;99.90
22073;DHT22;11202;50.916;4.698;2022-11-06T10:08:34;12.40;99.90
22073;DHT22;11202;50.916;4.698;2022-11-06T10:22:20;12.30;99.90
22073;DHT22;11202;50.916;4.698;2022-11-06T10:24:55;12.30;99.90
22073;DHT22;11202;50.916;4.698;2022-11-06T10:27:39;12.30;99.90
22073;DHT22;11202;50.916;4.698;2022-11-06T10:30:11;12.40;99.90
22073;DHT22;11202;50.916;4.698;2022-11-06T10:38:11;12.30;99.90
22073;DHT22;11202;50.916;4.698;2022-11-06T10:40:43;12.30;99.90
22073;DHT22;11202;50.916;4.698;2022-11-06T10:46:21;12.30;99.90
22073;DHT22;11202;50.916;4.698;2022-11-06T10:48:57;12.40;99.90
22073;DHT22;11202;50.916;4.698;2022-11-06T10:52:05;12.50;99.90
22073;DHT22;11202;50.916;4.698;2022-11-06T11:00:07;12.50;99.90
22073;DHT22;11202;50.916;4.698;2022-11-06T11:02:39;12.60;99.90
22073;DHT22;11202;50.916;4.698;2022-11-06T11:05:18;12.60;99.90
22073;DHT22;11202;50.916;4.698;2022-11-06T11:07:47;12.80;99.90
22073;DHT22;11202;50.916;4.698;2022-11-06T11:12:51;12.90;99.90
22073;DHT22;11202;50.916;4.698;2022-11-06T11:15:24;13.00;99.90
22073;DHT22;11202;50.916;4.698;2022-11-06T11:18:26;13.00;99.90
22073;DHT22;11202;50.916;4.698;2022-11-06T11:23:45;13.20;99.90
22073;DHT22;11202;50.916;4.698;2022-11-06T11:26:30;13.10;99.90
22073;DHT22;11202;50.916;4.698;2022-11-06T11:29:01;13.10;99.90
22073;DHT22;11202;50.916;4.698;2022-11-06T11:31:34;13.20;99.90
22073;DHT22;11202;50.916;4.698;2022-11-06T11:34:13;13.20;99.90
22073;DHT22;11202;50.916;4.698;2022-11-06T11:36:46;13.20;99.90
22073;DHT22;11202;50.916;4.698;2022-11-06T11:39:19;13.20;99.90
22073;DHT22;11202;50.916;4.698;2022-11-06T11:41:49;13.10;99.90
22073;DHT22;11202;50.916;4.698;2022-11-06T11:44:17;12.90;99.90
22073;DHT22;11202;50.916;4.698;2022-11-06T11:46:51;12.90;99.90
22073;DHT22;11202;50.916;4.698;2022-11-06T11:49:29;12.90;99.90
22073;DHT22;11202;50.916;4.698;2022-11-06T11:52:04;12.80;99.90
22073;DHT22;11202;50.916;4.698;2022-11-06T11:54:35;12.80;99.90
22073;DHT22;11202;50.916;4.698;2022-11-06T11:57:02;12.70;99.90
22073;DHT22;11202;50.916;4.698;2022-11-06T11:59:40;12.60;99.90
22073;DHT22;11202;50.916;4.698;2022-11-06T12:02:21;12.60;99.90
22073;DHT22;11202;50.916;4.698;2022-11-06T12:04:53;12.60;99.90
22073;DHT22;11202;50.916;4.698;2022-11-06T12:07:34;12.50;99.90
22073;DHT22;11202;50.916;4.698;2022-11-06T12:10:02;12.50;99.90
22073;DHT22;11202;50.916;4.698;2022-11-06T12:12:48;12.50;99.90
22073;DHT22;11202;50.916;4.698;2022-11-06T12:15:20;12.40;99.90
22073;DHT22;11202;50.916;4.698;2022-11-06T12:18:01;12.30;99.90
22073;DHT22;11202;50.916;4.698;2022-11-06T12:23:42;12.30;99.90
22073;DHT22;11202;50.916;4.698;2022-11-06T12:26:40;12.20;99.90
22073;DHT22;11202;50.916;4.698;2022-11-06T12:29:33;12.30;99.90
22073;DHT22;11202;50.916;4.698;2022-11-06T12:32:07;12.20;99.90
22073;DHT22;11202;50.916;4.698;2022-11-06T12:35:16;12.00;99.90
22073;DHT22;11202;50.916;4.698;2022-11-06T12:38:04;11.80;99.90
22073;DHT22;11202;50.916;4.698;2022-11-06T12:40:42;11.70;99.90
22073;DHT22;11202;50.916;4.698;2022-11-06T12:49:23;11.30;99.90
22073;DHT22;11202;50.916;4.698;2022-11-06T12:54:38;11.00;99.90
22073;DHT22;11202;50.916;4.698;2022-11-06T12:57:37;10.90;99.90
22073;DHT22;11202;50.916;4.698;2022-11-06T13:00:10;10.80;99.90
22073;DHT22;11202;50.916;4.698;2022-11-06T13:11:35;10.50;99.90
22073;DHT22;11202;50.916;4.698;2022-11-06T13:14:14;10.50;99.90
22073;DHT22;11202;50.916;4.698;2022-11-06T13:24:32;10.40;99.90
22073;DHT22;11202;50.916;4.698;2022-11-06T13:27:25;10.30;99.90
22073;DHT22;11202;50.916;4.698;2022-11-06T13:30:00;10.20;99.90
22073;DHT22;11202;50.916;4.698;2022-11-06T13:32:29;10.20;99.90
22073;DHT22;11202;50.916;4.698;2022-11-06T13:35:03;10.20;99.90
22073;DHT22;11202;50.916;4.698;2022-11-06T13:37:41;10.20;99.90
22073;DHT22;11202;50.916;4.698;2022-11-06T13:42:47;10.10;99.90
22073;DHT22;11202;50.916;4.698;2022-11-06T13:45:15;10.00;99.90
22073;DHT22;11202;50.916;4.698;2022-11-06T13:48:04;10.00;99.90
22073;DHT22;11202;50.916;4.698;2022-11-06T13:50:46;10.00;99.90
22073;DHT22;11202;50.916;4.698;2022-11-06T14:02:15;9.60;99.90
22073;DHT22;11202;50.916;4.698;2022-11-06T14:07:34;9.70;99.90
22073;DHT22;11202;50.916;4.698;2022-11-06T14:10:01;9.60;99.90
22073;DHT22;11202;50.916;4.698;2022-11-06T14:12:29;9.60;99.90
22073;DHT22;11202;50.916;4.698;2022-11-06T14:17:58;9.60;99.90
22073;DHT22;11202;50.916;4.698;2022-11-06T14:26:09;9.60;99.90
22073;DHT22;11202;50.916;4.698;2022-11-06T14:28:40;9.70;99.90
22073;DHT22;11202;50.916;4.698;2022-11-06T14:31:07;9.80;99.90
22073;DHT22;11202;50.916;4.698;2022-11-06T14:38:54;9.60;99.90
22073;DHT22;11202;50.916;4.698;2022-11-06T14:44:26;9.50;99.90
22073;DHT22;11202;50.916;4.698;2022-11-06T14:47:02;9.50;99.90
22073;DHT22;11202;50.916;4.698;2022-11-06T14:49:42;9.50;99.90
22073;DHT22;11202;50.916;4.698;2022-11-06T14:52:12;9.40;99.90
22073;DHT22;11202;50.916;4.698;2022-11-06T14:55:03;9.30;99.90
22073;DHT22;11202;50.916;4.698;2022-11-06T15:00:04;9.10;99.90
22073;DHT22;11202;50.916;4.698;2022-11-06T15:02:32;9.00;99.90
22073;DHT22;11202;50.916;4.698;2022-11-06T15:05:16;9.00;99.90
22073;DHT22;11202;50.916;4.698;2022-11-06T15:15:48;8.80;99.90
22073;DHT22;11202;50.916;4.698;2022-11-06T15:18:17;8.80;99.90
22073;DHT22;11202;50.916;4.698;2022-11-06T15:20:49;8.70;99.90
22073;DHT22;11202;50.916;4.698;2022-11-06T15:23:48;8.70;99.90
22073;DHT22;11202;50.916;4.698;2022-11-06T15:29:05;8.70;99.90
22073;DHT22;11202;50.916;4.698;2022-11-06T15:31:33;8.70;99.90
22073;DHT22;11202;50.916;4.698;2022-11-06T15:34:03;8.60;99.90
22073;DHT22;11202;50.916;4.698;2022-11-06T15:36:37;8.60;99.90
22073;DHT22;11202;50.916;4.698;2022-11-06T15:39:40;8.50;99.90
22073;DHT22;11202;50.916;4.698;2022-11-06T15:42:17;8.50;99.90
22073;DHT22;11202;50.916;4.698;2022-11-06T15:44:45;8.50;99.90
22073;DHT22;11202;50.916;4.698;2022-11-06T15:47:26;8.50;99.90
22073;DHT22;11202;50.916;4.698;2022-11-06T15:50:15;8.40;99.90
22073;DHT22;11202;50.916;4.698;2022-11-06T15:52:41;8.40;99.90
22073;DHT22;11202;50.916;4.698;2022-11-06T15:55:28;8.40;99.90
22073;DHT22;11202;50.916;4.698;2022-11-06T15:58:32;8.40;99.90
22073;DHT22;11202;50.916;4.698;2022-11-06T16:00:50;8.40;99.90
22073;DHT22;11202;50.916;4.698;2022-11-06T16:03:21;8.40;99.90
22073;DHT22;11202;50.916;4.698;2022-11-06T16:05:47;8.40;99.90
22073;DHT22;11202;50.916;4.698;2022-11-06T16:08:17;8.40;99.90
22073;DHT22;11202;50.916;4.698;2022-11-06T16:10:45;8.40;99.90
22073;DHT22;11202;50.916;4.698;2022-11-06T16:13:15;8.40;99.90
22073;DHT22;11202;50.916;4.698;2022-11-06T16:20:52;8.40;99.90
22073;DHT22;11202;50.916;4.698;2022-11-06T16:24:00;8.40;99.90
22073;DHT22;11202;50.916;4.698;2022-11-06T16:26:27;8.40;99.90
22073;DHT22;11202;50.916;4.698;2022-11-06T16:29:17;8.40;99.90
22073;DHT22;11202;50.916;4.698;2022-11-06T16:31:47;8.40;99.90
22073;DHT22;11202;50.916;4.698;2022-11-06T16:34:31;8.50;99.90
22073;DHT22;11202;50.916;4.698;2022-11-06T16:37:11;8.50;99.90
22073;DHT22;11202;50.916;4.698;2022-11-06T16:39:54;8.50;99.90
22073;DHT22;11202;50.916;4.698;2022-11-06T16:42:35;8.60;99.90
22073;DHT22;11202;50.916;4.698;2022-11-06T16:45:20;8.60;99.90
22073;DHT22;11202;50.916;4.698;2022-11-06T16:50:46;8.70;99.90
22073;DHT22;11202;50.916;4.698;2022-11-06T16:53:18;8.70;99.90
22073;DHT22;11202;50.916;4.698;2022-11-06T16:56:01;8.70;99.90
22073;DHT22;11202;50.916;4.698;2022-11-06T16:58:32;8.80;99.90
22073;DHT22;11202;50.916;4.698;2022-11-06T17:01:01;8.80;99.90
22073;DHT22;11202;50.916;4.698;2022-11-06T17:03:49;8.80;99.90
22073;DHT22;11202;50.916;4.698;2022-11-06T17:08:58;9.00;99.90
22073;DHT22;11202;50.916;4.698;2022-11-06T17:11:24;9.00;99.90
22073;DHT22;11202;50.916;4.698;2022-11-06T17:13:50;9.00;99.90
22073;DHT22;11202;50.916;4.698;2022-11-06T17:16:19;9.00;99.90
22073;DHT22;11202;50.916;4.698;2022-11-06T17:18:45;9.00;99.90
22073;DHT22;11202;50.916;4.698;2022-11-06T17:21:15;9.10;99.90
22073;DHT22;11202;50.916;4.698;2022-11-06T17:23:41;9.20;99.90
22073;DHT22;11202;50.916;4.698;2022-11-06T17:26:18;9.20;99.90
22073;DHT22;11202;50.916;4.698;2022-11-06T17:28:45;9.30;99.90
22073;DHT22;11202;50.916;4.698;2022-11-06T17:31:12;9.30;99.90
22073;DHT22;11202;50.916;4.698;2022-11-06T17:33:41;9.30;99.90
22073;DHT22;11202;50.916;4.698;2022-11-06T17:36:37;9.30;99.90
22073;DHT22;11202;50.916;4.698;2022-11-06T17:39:04;9.30;99.90
22073;DHT22;11202;50.916;4.698;2022-11-06T17:41:30;9.40;99.90
22073;DHT22;11202;50.916;4.698;2022-11-06T17:44:01;9.40;99.90
22073;DHT22;11202;50.916;4.698;2022-11-06T17:46:29;9.40;99.90
22073;DHT22;11202;50.916;4.698;2022-11-06T17:48:58;9.50;99.90
22073;DHT22;11202;50.916;4.698;2022-11-06T17:51:24;9.50;99.90
22073;DHT22;11202;50.916;4.698;2022-11-06T17:54:09;9.60;99.90
22073;DHT22;11202;50.916;4.698;2022-11-06T17:56:36;9.60;99.90
22073;DHT22;11202;50.916;4.698;2022-11-06T17:59:04;9.70;99.90
22073;DHT22;11202;50.916;4.698;2022-11-06T18:01:35;9.70;99.90
22073;DHT22;11202;50.916;4.698;2022-11-06T18:04:03;9.70;99.90
22073;DHT22;11202;50.916;4.698;2022-11-06T18:06:31;9.70;99.90
22073;DHT22;11202;50.916;4.698;2022-11-06T18:09:04;9.80;99.90
22073;DHT22;11202;50.916;4.698;2022-11-06T18:11:33;9.70;99.90
22073;DHT22;11202;50.916;4.698;2022-11-06T18:13:58;9.80;99.90
22073;DHT22;11202;50.916;4.698;2022-11-06T18:16:29;9.80;99.90
22073;DHT22;11202;50.916;4.698;2022-11-06T18:18:57;9.90;99.90
22073;DHT22;11202;50.916;4.698;2022-11-06T18:21:26;9.90;99.90
22073;DHT22;11202;50.916;4.698;2022-11-06T18:23:52;9.90;99.90
22073;DHT22;11202;50.916;4.698;2022-11-06T18:26:19;10.00;99.90
22073;DHT22;11202;50.916;4.698;2022-11-06T18:28:48;10.00;99.90